Have a Safe July 4th! 

Flight Track Log - Related Links

Times and Time Zones

All times are in EDT time to prevent confusion due to time zone crossing. See the XOJ552 flight status page for this flight to view local times or setup timezone preferences in your user account.

Time Position Orientation Groundspeed Altitude Reporting Facility
EDT Latitude Longitude Course Direction KTS MPH feet Rate Location/Type
Sun 12:30:07 PM 38.1167 -85.7833 282° West 223 257 4,500  Level Louisville TRACON
Sun 12:30:24 PM 38.1225 -85.7903 317° Northwest 205 236 5,000 2,962 Climbing Indianapolis Center
Sun 12:31:26 PM 38.1111 -85.8808 261° West 255 293 8,400 3,242 Climbing Indianapolis Center
Sun 12:32:28 PM 38.0994 -85.9889 262° West 303 349 11,700 3,145 Climbing Indianapolis Center
Sun 12:33:30 PM 38.0869 -86.1147 263° West 351 404 14,900 2,829 Climbing Indianapolis Center
Sun 12:34:31 PM 38.0706 -86.2739 263° West 375 432 17,500 2,537 Climbing Indianapolis Center
Sun 12:35:00 PM 38.0285 -87.0206 282° West  Level FlightAware Approximate
Sun 12:35:33 PM 38.0544 -86.4133 262° West 392 451 20,100  Level Indianapolis Center
Sun 12:36:35 PM 38.0389 -86.5592 262° West 410 472 22,700 1,984 Climbing Indianapolis Center
Sun 12:37:37 PM 38.0217 -86.7139 262° West 434 499 24,200 1,645 Climbing Indianapolis Center
Sun 12:38:39 PM 38.0108 -86.8836 265° West 477 549 26,100 1,887 Climbing Indianapolis Center
Sun 12:39:41 PM 38.0431 -87.0575 283° West 498 573 28,100 1,839 Climbing Indianapolis Center
Sun 12:40:43 PM 38.0756 -87.2347 283° West 503 579 29,900 1,645 Climbing Indianapolis Center
Sun 12:41:45 PM 38.1100 -87.4144 284° West 513 590 31,500 1,452 Climbing Indianapolis Center
Sun 12:42:47 PM 38.1436 -87.5953 283° West 519 597 32,900 1,258 Climbing Indianapolis Center
Sun 12:43:49 PM 38.1772 -87.7786 283° West 527 606 34,100 1,403 Climbing Indianapolis Center
Sun 12:44:51 PM 38.2100 -87.9594 283° West 523 602 35,800 1,887 Climbing Indianapolis Center
Sun 12:45:53 PM 38.2486 -88.1697 283° West 505 581 38,000 1,935 Climbing Indianapolis Center
Sun 12:46:55 PM 38.2781 -88.3344 283° West 480 552 39,800 1,339 Climbing Indianapolis Center
Sun 12:47:54 PM 38.3064 -88.4953 283° West 465 535 40,700 694 Climbing Kansas City Center
Sun 12:48:56 PM 38.3358 -88.6550 283° West 462 532 41,200 484 Climbing Kansas City Center
Sun 12:49:58 PM 38.3925 -88.8169 294° West 460 529 41,700 387 Climbing Kansas City Center
Sun 12:51:00 PM 38.4614 -88.9569 302° West 465 535 42,000 290 Climbing Kansas City Center
Sun 12:52:02 PM 38.5522 -89.0742 315° West 465 535 42,300 290 Climbing Kansas City Center
Sun 12:53:04 PM 38.6556 -89.1936 318° Northwest 467 537 42,600 290 Climbing Kansas City Center
Sun 12:54:06 PM 38.7481 -89.3072 316° Northwest 464 534 42,900 194 Climbing Kansas City Center
Sun 12:55:08 PM 38.8489 -89.4272 317° Northwest 462 532 43,000 48 Climbing Kansas City Center
Sun 12:56:10 PM 38.9353 -89.5492 312° West 465 535 43,000  Level Kansas City Center
Sun 12:57:12 PM 38.9783 -89.7192 288° West 472 543 43,000  Level Kansas City Center
Sun 12:58:14 PM 38.9922 -89.8878 276° West 477 549 43,000  Level Kansas City Center
Sun 12:59:16 PM 39.0058 -90.0550 276° West 477 549 43,000  Level Kansas City Center
Sun 01:00:18 PM 39.0200 -90.2233 276° West 479 551 43,000  Level Kansas City Center
Sun 01:01:20 PM 39.0331 -90.3925 276° West 482 555 43,000  Level Kansas City Center
Sun 01:02:22 PM 39.0489 -90.5944 276° West 481 554 43,000  Level Kansas City Center
Sun 01:03:24 PM 39.0619 -90.7614 276° West 477 549 43,000  Level Kansas City Center
Sun 01:04:26 PM 39.0739 -90.9306 275° West 477 549 43,000  Level Kansas City Center
Sun 01:05:28 PM 39.0867 -91.0978 276° West 476 548 43,000  Level Kansas City Center
Sun 01:06:30 PM 39.0981 -91.2642 275° West 471 542 43,000  Level Kansas City Center
Sun 01:07:32 PM 39.1100 -91.4300 275° West 469 540 43,000  Level Kansas City Center
Sun 01:08:34 PM 39.1233 -91.6292 275° West 467 537 43,000  Level Kansas City Center
Sun 01:09:36 PM 39.1322 -91.7808 274° West 467 537 43,000  Level Kansas City Center
Sun 01:10:38 PM 39.1453 -91.9814 275° West 468 539 43,000  Level Kansas City Center
Sun 01:11:40 PM 39.1611 -92.1456 277° West 465 535 43,000  Level Kansas City Center
Sun 01:12:42 PM 39.1764 -92.3097 277° West 463 533 43,000  Level Kansas City Center
Sun 01:13:44 PM 39.1928 -92.4756 277° West 464 534 43,000  Level Kansas City Center
Sun 01:14:46 PM 39.2072 -92.6419 276° West 465 535 43,000  Level Kansas City Center
Sun 01:15:48 PM 39.2222 -92.8069 277° West 467 537 43,000  Level Kansas City Center
Sun 01:16:50 PM 39.2372 -92.9744 277° West 470 541 43,000  Level Kansas City Center
Sun 01:17:52 PM 39.2547 -93.1708 277° West 467 537 43,000  Level Kansas City Center
Sun 01:18:54 PM 39.2681 -93.3369 276° West 462 532 43,000  Level Kansas City Center
Sun 01:19:56 PM 39.2839 -93.4981 277° West 467 537 43,000  Level Kansas City Center
Sun 01:20:58 PM 39.2967 -93.6611 276° West 461 531 43,000  Level Kansas City Center
Sun 01:22:00 PM 39.3125 -93.8383 277° West 461 531 43,000  Level Kansas City Center
Sun 01:23:02 PM 39.3269 -94.0231 276° West 464 534 43,000  Level Kansas City Center
Sun 01:24:04 PM 39.3394 -94.1817 276° West 464 534 43,000  Level Kansas City Center
Sun 01:25:06 PM 39.3539 -94.3658 276° West 463 533 43,000  Level Kansas City Center
Sun 01:26:08 PM 39.3661 -94.5233 276° West 461 531 43,000  Level Kansas City Center
Sun 01:27:10 PM 39.3794 -94.7047 275° West 455 524 43,000  Level Kansas City Center
Sun 01:28:12 PM 39.3903 -94.8639 275° West 460 529 43,000  Level Kansas City Center
Sun 01:29:14 PM 39.4042 -95.0428 276° West 454 522 43,000  Level Kansas City Center
Sun 01:30:16 PM 39.4153 -95.2094 275° West 453 521 43,000  Level Kansas City Center
Sun 01:31:18 PM 39.4269 -95.3706 275° West 451 519 43,000  Level Kansas City Center
Sun 01:32:20 PM 39.4381 -95.5275 275° West 453 521 43,000  Level Kansas City Center
Sun 01:33:22 PM 39.4494 -95.7075 275° West 452 520 43,000  Level Kansas City Center
Sun 01:34:24 PM 39.4581 -95.8619 274° West 453 521 43,000  Level Kansas City Center
Sun 01:35:26 PM 39.4697 -96.0406 275° West 447 514 43,000  Level Kansas City Center
Sun 01:36:28 PM 39.4806 -96.2053 275° West 445 512 43,000  Level Kansas City Center
Sun 01:37:30 PM 39.4906 -96.3653 275° West 446 513 43,000  Level Kansas City Center
Sun 01:38:32 PM 39.5006 -96.5247 275° West 447 514 43,000  Level Kansas City Center
Sun 01:39:35 PM 39.5081 -96.6778 274° West 446 513 43,000  Level Kansas City Center
Sun 01:40:37 PM 39.5186 -96.8558 274° West 446 513 43,000  Level Kansas City Center
Sun 01:41:39 PM 39.5278 -97.0025 275° West 444 511 43,000  Level Kansas City Center
Sun 01:42:41 PM 39.5358 -97.1617 274° West 444 511 43,000  Level Kansas City Center
Sun 01:43:43 PM 39.5447 -97.3456 274° West 445 512 43,000  Level Kansas City Center
Sun 01:44:45 PM 39.5531 -97.5064 274° West 446 513 43,000  Level Kansas City Center
Sun 01:45:47 PM 39.5603 -97.6664 273° West 445 512 43,000  Level Kansas City Center
Sun 01:46:49 PM 39.5681 -97.8267 274° West 444 511 43,000  Level Kansas City Center
Sun 01:47:51 PM 39.5775 -97.9906 274° West 445 512 43,000  Level Kansas City Center
Sun 01:48:53 PM 39.5858 -98.1814 273° West 444 511 43,000  Level Kansas City Center
Sun 01:49:28 PM 39.5886 -98.2758 272° West 445 512 43,000  Level Denver Center
Sun 01:50:30 PM 39.5956 -98.4347 273° West 442 509 43,000  Level Denver Center
Sun 01:51:33 PM 39.6019 -98.5953 273° West 446 513 43,000  Level Denver Center
Sun 01:52:35 PM 39.6081 -98.7572 273° West 449 517 43,000  Level Denver Center
Sun 01:53:37 PM 39.6144 -98.9167 273° West 444 511 43,000  Level Denver Center
Sun 01:54:39 PM 39.6206 -99.0769 273° West 445 512 43,000  Level Denver Center
Sun 01:55:41 PM 39.6272 -99.2689 273° West 443 510 43,000  Level Denver Center
Sun 01:56:43 PM 39.6328 -99.4303 273° West 447 514 43,000  Level Denver Center
Sun 01:57:45 PM 39.6378 -99.5897 272° West 441 507 43,000  Level Denver Center
Sun 01:58:47 PM 39.6431 -99.7542 272° West 451 519 43,000  Level Denver Center
Sun 01:59:49 PM 39.6478 -99.9144 272° West 448 516 43,000  Level Denver Center
Sun 02:00:51 PM 39.6522 -100.0814 272° West 444 511 43,000  Level Denver Center
Sun 02:01:53 PM 39.6581 -100.2594 272° West 442 509 43,000  Level Denver Center
Sun 02:02:55 PM 39.6617 -100.4131 272° West 444 511 43,000  Level Denver Center
Sun 02:03:57 PM 39.6656 -100.5897 272° West 439 505 43,000  Level Denver Center
Sun 02:04:59 PM 39.6686 -100.7167 272° West 440 506 43,000  Level Denver Center
Sun 02:06:01 PM 39.6728 -100.9194 272° West 440 506 43,000  Level Denver Center
Sun 02:07:03 PM 39.6761 -101.0717 272° West 439 505 43,000  Level Denver Center
Sun 02:08:05 PM 39.6783 -101.2247 271° West 441 507 43,000  Level Denver Center
Sun 02:09:07 PM 39.6822 -101.4053 272° West 445 512 43,000  Level Denver Center
Sun 02:10:09 PM 39.6839 -101.5589 271° West 446 513 43,000  Level Denver Center
Sun 02:11:11 PM 39.6869 -101.7392 271° West 446 513 43,000  Level Denver Center
Sun 02:12:13 PM 39.6889 -101.8928 271° West 445 512 43,000  Level Denver Center
Sun 02:13:15 PM 39.6903 -102.0717 271° West 444 511 43,000  Level Denver Center
Sun 02:14:17 PM 39.6919 -102.2250 271° West 443 510 43,000  Level Denver Center
Sun 02:15:19 PM 39.6944 -102.4019 271° West 440 506 43,000  Level Denver Center
Sun 02:16:21 PM 39.6958 -102.5503 271° West 431 496 43,000  Level Denver Center
Sun 02:17:23 PM 39.6956 -102.7233 270° West 430 495 43,000  Level Denver Center
Sun 02:18:25 PM 39.6967 -102.8619 271° West 431 496 43,000  Level Denver Center
Sun 02:19:28 PM 39.6978 -103.0464 271° West 435 501 43,000  Level Denver Center
Sun 02:20:30 PM 39.6964 -103.2036 269° West 433 498 43,000  Level Denver Center
Sun 02:21:32 PM 39.6975 -103.3628 271° West 437 503 43,000  Level Denver Center
Sun 02:22:34 PM 39.6969 -103.5222 270° West 437 503 43,000  Level Denver Center
Sun 02:23:36 PM 39.6964 -103.6808 270° West 437 503 43,000  Level Denver Center
Sun 02:24:38 PM 39.6975 -103.8439 271° West 442 509 43,000  Level Denver Center
Sun 02:25:52 PM 39.6956 -104.0025 269° West 435 501 43,000  Level Denver Center
Sun 02:26:54 PM 39.6944 -104.2150 270° West 435 501 43,000  Level Denver Center
Sun 02:27:56 PM 39.6933 -104.3753 270° West 439 505 43,000  Level Denver Center
Sun 02:28:58 PM 39.6911 -104.5339 269° West 437 503 43,000  Level Denver Center
Sun 02:30:00 PM 39.6836 -104.6875 266° West 432 497 43,000  Level Denver Center
Sun 02:31:02 PM 39.6650 -104.8692 262° West 441 507 43,000  Level Denver Center
Sun 02:32:04 PM 39.6486 -105.0244 262° West 428 493 43,000  Level Denver Center
Sun 02:33:18 PM 39.6314 -105.1836 262° West 440 506 43,000  Level Denver Center
Sun 02:34:21 PM 39.6114 -105.3661 262° West 433 498 43,000  Level Denver Center
Sun 02:35:23 PM 39.5947 -105.5250 262° West 438 504 43,000  Level Denver Center
Sun 02:36:37 PM 39.5736 -105.7075 262° West 438 504 43,000  Level Denver Center
Sun 02:37:39 PM 39.5561 -105.8886 263° West 426 490 43,000  Level Denver Center
Sun 02:38:53 PM 39.5350 -106.0703 261° West 433 498 43,000  Level Denver Center
Sun 02:39:55 PM 39.5167 -106.2372 262° West 432 497 43,000  Level Denver Center
Sun 02:40:57 PM 39.4992 -106.3917 262° West 434 499 43,000  Level Denver Center
Sun 02:41:59 PM 39.4808 -106.5478 261° West 433 498 43,000  Level Denver Center
Sun 02:43:01 PM 39.4606 -106.7189 261° West 429 494 43,000  Level Denver Center
Sun 02:44:03 PM 39.4417 -106.8644 261° West 428 493 43,000  Level Denver Center
Sun 02:45:05 PM 39.4125 -107.0331 257° West 430 495 43,000  Level Denver Center
Sun 02:46:07 PM 39.3861 -107.1744 256° West 426 490 43,000  Level Denver Center
Sun 02:47:09 PM 39.3522 -107.3419 255° West 430 495 43,000  Level Denver Center
Sun 02:48:11 PM 39.3292 -107.4603 256° West 427 491 43,000  Level Denver Center
Sun 02:49:13 PM 39.2917 -107.6522 256° West 430 495 43,000  Level Denver Center
Sun 02:50:15 PM 39.2625 -107.7936 255° West 427 491 43,000  Level Denver Center
Sun 02:51:17 PM 39.2344 -107.9367 256° West 428 493 43,000  Level Denver Center
Sun 02:52:20 PM 39.2014 -108.1031 256° West 427 491 43,000  Level Denver Center
Sun 02:53:21 PM 39.1722 -108.2464 255° West 430 495 43,000  Level Denver Center
Sun 02:54:23 PM 39.1381 -108.4144 255° West 432 497 43,000  Level Denver Center
Sun 02:55:25 PM 39.1081 -108.5592 255° West 435 501 43,000  Level Denver Center
Sun 02:56:27 PM 39.0725 -108.7264 255° West 432 497 43,000  Level Denver Center
Sun 02:57:41 PM 39.0478 -108.8711 258° West 432 497 43,000  Level Denver Center
Sun 02:58:44 PM 39.0189 -109.0653 259° West 430 495 43,000  Level Denver Center
Sun 02:59:46 PM 38.9986 -109.2125 260° West 434 499 43,000  Level Denver Center
Sun 03:01:00 PM 38.9722 -109.3828 259° West 435 501 43,000  Level Denver Center
Sun 03:02:02 PM 38.9467 -109.5525 259° West 432 497 43,000  Level Denver Center
Sun 03:03:04 PM 38.9211 -109.7219 259° West 432 497 43,000  Level Denver Center
Sun 03:04:06 PM 38.8986 -109.8667 259° West 431 496 43,000  Level Denver Center
Sun 03:04:26 PM 38.8911 -109.9156 259° West 432 497 43,000  Level Salt Lake Center
Sun 03:05:28 PM 38.8644 -110.0853 259° West 434 499 43,000  Level Salt Lake Center
Sun 03:06:22 PM 38.8425 -110.2306 259° West 430 495 43,000  Level Denver Center
Sun 03:07:31 PM 38.8150 -110.3986 258° West 435 501 43,000  Level Salt Lake Center
Sun 03:08:33 PM 38.7917 -110.5428 258° West 431 496 43,000  Level Salt Lake Center
Sun 03:09:34 PM 38.7647 -110.7114 258° West 433 498 43,000  Level Salt Lake Center
Sun 03:10:36 PM 38.7400 -110.8542 258° West 431 496 43,000  Level Salt Lake Center
Sun 03:12:00 PM 38.6978 -111.0642 256° West  Level FlightAware Approximate
Sun 03:12:39 PM 38.6897 -111.1625 256° West 434 499 43,000  Level Salt Lake Center
Sun 03:13:41 PM 38.6647 -111.3122 258° West 433 498 43,000  Level Salt Lake Center
Sun 03:14:42 PM 38.6394 -111.4622 258° West 434 499 43,000  Level Salt Lake Center
Sun 03:15:44 PM 38.6131 -111.6108 257° West 431 496 43,000  Level Salt Lake Center
Sun 03:16:46 PM 38.5825 -111.7911 258° West 433 498 43,000  Level Salt Lake Center
Sun 03:17:48 PM 38.5561 -111.9403 257° West 434 499 43,000  Level Salt Lake Center
Sun 03:18:49 PM 38.5303 -112.0903 258° West 433 498 43,000  Level Salt Lake Center
Sun 03:19:51 PM 38.5039 -112.2400 257° West 435 501 43,000  Level Salt Lake Center
Sun 03:20:53 PM 38.4781 -112.3875 257° West 430 495 43,000  Level Salt Lake Center
Sun 03:21:54 PM 38.4736 -112.5403 268° West 433 498 43,000  Level Salt Lake Center
Sun 03:22:56 PM 38.4664 -112.6925 267° West 434 499 43,000  Level Salt Lake Center
Sun 03:23:58 PM 38.4581 -112.8756 267° West 434 499 43,000  Level Salt Lake Center
Sun 03:25:00 PM 38.4519 -113.0269 267° West 432 497 43,000  Level Salt Lake Center
Sun 03:26:01 PM 38.4456 -113.1789 267° West 432 497 43,000  Level Salt Lake Center
Sun 03:27:03 PM 38.4389 -113.3311 267° West 432 497 43,000  Level Salt Lake Center
Sun 03:28:05 PM 38.4311 -113.4839 266° West 433 498 43,000  Level Salt Lake Center
Sun 03:29:07 PM 38.4242 -113.6369 267° West 436 502 43,000  Level Salt Lake Center
Sun 03:30:08 PM 38.4150 -113.8181 266° West 431 496 43,000  Level Salt Lake Center
Sun 03:31:10 PM 38.4067 -113.9717 266° West 434 499 43,000  Level Salt Lake Center
Sun 03:32:12 PM 38.3983 -114.1250 266° West 436 502 43,000  Level Salt Lake Center
Sun 03:33:14 PM 38.3903 -114.2783 266° West 436 502 43,000  Level Salt Lake Center
Sun 03:34:16 PM 38.3814 -114.4336 266° West 439 505 43,000  Level Salt Lake Center
Sun 03:35:17 PM 38.3717 -114.5875 265° West 439 505 43,000  Level Salt Lake Center
Sun 03:36:19 PM 38.3617 -114.7733 266° West 441 507 43,000  Level Salt Lake Center
Sun 03:37:21 PM 38.3519 -114.9278 265° West 438 504 43,000  Level Salt Lake Center
Sun 03:38:23 PM 38.3431 -115.0808 266° West 436 502 43,000  Level Salt Lake Center
Sun 03:39:24 PM 38.3331 -115.2361 265° West 440 506 43,000  Level Salt Lake Center
Sun 03:40:26 PM 38.3239 -115.3822 265° West 441 507 43,000  Level Salt Lake Center
Sun 03:41:28 PM 38.3114 -115.5692 265° West 441 507 43,000  Level Salt Lake Center
Sun 03:42:29 PM 38.3017 -115.7250 266° West 441 507 43,000  Level Salt Lake Center
Sun 03:43:31 PM 38.2911 -115.8811 265° West 442 509 43,000  Level Salt Lake Center
Sun 03:44:33 PM 38.2800 -116.0358 265° West 441 507 43,000  Level Salt Lake Center
Sun 03:45:34 PM 38.2700 -116.1917 265° West 442 509 43,000  Level Salt Lake Center
Sun 03:46:55 PM 38.2539 -116.4097 265° West 443 510 43,000  Level Oakland Center
Sun 03:47:56 PM 38.2428 -116.5653 265° West 443 510 43,000  Level Oakland Center
Sun 03:48:57 PM 38.2314 -116.7203 265° West 440 506 43,000  Level Oakland Center
Sun 03:49:59 PM 38.2192 -116.8761 264° West 443 510 43,000  Level Oakland Center
Sun 03:50:42 PM 38.2089 -117.0008 264° West 444 511 43,000  Level Salt Lake Center
Sun 03:52:02 PM 38.1917 -117.2144 264° West 451 519 43,000  Level Oakland Center
Sun 03:53:03 PM 38.1797 -117.3703 264° West 448 516 43,000 -244 Level Oakland Center
Sun 03:54:05 PM 38.1656 -117.5231 263° West 449 517 42,500 -732 Descending Oakland Center
Sun 03:55:06 PM 38.1517 -117.6806 264° West 450 518 41,500 -976 Descending Oakland Center
Sun 03:56:08 PM 38.1381 -117.8353 264° West 444 511 40,500 -976 Descending Oakland Center
Sun 03:57:09 PM 38.1239 -117.9881 263° West 438 504 39,500 -976 Descending Oakland Center
Sun 03:58:11 PM 38.1103 -118.1367 263° West 427 491 38,500 -1,122 Descending Oakland Center
Sun 03:59:12 PM 38.0942 -118.3139 263° West 423 487 37,200 -1,171 Descending Oakland Center
Sun 04:00:14 PM 38.0869 -118.4689 267° West 438 504 36,100 -732 Descending Oakland Center
Sun 04:01:15 PM 38.1064 -118.6253 279° West 450 518 35,700 -836 Descending Oakland Center
Sun 04:02:16 PM 38.1222 -118.7806 277° West 445 512 34,400 -1,171 Descending Oakland Center
Sun 04:03:18 PM 38.0981 -118.9256 258° West 419 482 33,300 -1,171 Descending Oakland Center
Sun 04:04:19 PM 38.0772 -119.0717 260° West 419 482 32,000 -1,268 Descending Oakland Center
Sun 04:05:21 PM 38.0519 -119.2444 260° West 438 504 30,700 -1,268 Descending Oakland Center
Sun 04:06:22 PM 38.0289 -119.3989 259° West 445 512 29,400 -1,171 Descending Oakland Center
Sun 04:07:24 PM 38.0078 -119.5472 260° West 431 496 28,300 -1,171 Descending Oakland Center
Sun 04:08:25 PM 37.9867 -119.6931 260° West 421 484 27,000 -1,180 Descending Oakland Center
Sun 04:09:26 PM 37.9622 -119.8389 258° West 424 488 25,900 -1,366 Descending Oakland Center
Sun 04:10:28 PM 37.9394 -119.9817 259° West 415 478 24,200 -1,659 Descending Oakland Center
Sun 04:11:29 PM 37.9172 -120.1236 259° West 411 473 22,500 -1,659 Descending Oakland Center
Sun 04:12:31 PM 37.8969 -120.2594 259° West 397 457 20,800 -1,220 Descending Oakland Center
Sun 04:13:32 PM 37.8806 -120.3969 261° West 395 455 20,000 -639 Descending Oakland Center
Sun 04:14:33 PM 37.8725 -120.5389 266° West 401 461 19,500 -1,073 Descending Oakland Center
Sun 04:15:35 PM 37.8642 -120.6789 266° West 401 461 17,800 -2,098 Descending Oakland Center
Sun 04:16:36 PM 37.8542 -120.8400 266° West 388 447 15,200 -2,203 Descending Oakland Center
Sun 04:17:43 PM 37.8500 -120.9833 268° West 352 405 13,100 -1,748 Descending Northern Cal TRACON
Sun 04:18:43 PM 37.8333 -121.1000 260° West 345 397 11,500 -1,579 Descending Northern Cal TRACON
Sun 04:19:37 PM 37.8167 -121.2000 258° West 327 376 10,100 -1,600 Descending Northern Cal TRACON
Sun 04:20:43 PM 37.7833 -121.3000 247° West 283 326 8,300 -1,000 Descending Northern Cal TRACON
Sun 04:21:43 PM 37.7667 -121.4000 258° West 283 326 8,000 -150 Descending Northern Cal TRACON
Sun 04:22:43 PM 37.7833 -121.5000 282° West 300 345 8,000  Level Northern Cal TRACON
Sun 04:23:43 PM 37.8000 -121.6000 282° West 306 352 8,000 -50 Level Northern Cal TRACON
Sun 04:24:43 PM 37.8167 -121.7000 282° West 306 352 7,900 -500 Descending Northern Cal TRACON
Sun 04:25:43 PM 37.8500 -121.8000 293° West 295 339 7,000 -700 Descending Northern Cal TRACON
Sun 04:26:43 PM 37.8667 -121.9000 282° West 277 319 6,500 -900 Descending Northern Cal TRACON
Sun 04:27:43 PM 37.9000 -121.9833 297° West 267 307 5,200 -842 Descending Northern Cal TRACON
Sun 04:28:37 PM 37.9167 -122.0667 284° West 274 315 4,900 -522 Descending Northern Cal TRACON
Sun 04:28:52 PM 37.9189 -122.0906 277° West 274 315 4,600 -1,403 Descending Oakland Center
Sun 04:29:54 PM 37.9394 -122.1839 286° West 275 316 3,100 -780 Descending Oakland Center
Sun 04:30:55 PM 37.9394 -122.2747 270° West 267 307 3,000  Descending Oakland Center
Sun 04:31:56 PM 37.9278 -122.3589 260° West 246 283 3,100 -111 Climbing Oakland Center
Sun 04:33:37 PM 37.8167 -122.3833 190° South 194 223 2,700 -390 Descending Northern Cal TRACON
Sun 04:33:59 PM 37.8083 -122.3672 123° Southeast 204 235 2,300 -795 Descending Oakland Center
Sun 04:35:00 PM 37.7742 -122.3250 136° Southeast 184 212 1,600 -717 Descending Oakland Center
Sun 04:37:03 PM 37.7200 -122.2433 130° Southeast 155 178 100 -732 Descending Oakland Center

Login

Don't have an account? Register now (free) for customized features, flight alerts, and more!